createdAt,value
2022-11-16T00:00:30.838Z,63.91
2022-11-16T00:05:34.327Z,63.34
2022-11-16T00:10:39.315Z,63.46
2022-11-16T00:15:42.638Z,63.75
2022-11-16T00:20:46.282Z,63.12
2022-11-16T00:25:51.511Z,62.96
2022-11-16T00:31:00.007Z,63.18
2022-11-16T00:36:04.381Z,63.24
2022-11-16T00:41:09.727Z,63.38
2022-11-16T00:46:13.206Z,63.34
2022-11-16T00:51:16.733Z,63.05
2022-11-16T00:56:21.764Z,62.54
2022-11-16T01:01:25.417Z,62.76
2022-11-16T01:06:28.894Z,62.50
2022-11-16T01:11:51.004Z,62.74
2022-11-16T01:16:54.530Z,62.73
2022-11-16T01:21:57.953Z,63.35
2022-11-16T01:27:02.852Z,63.25
2022-11-16T01:32:06.957Z,63.22
2022-11-16T01:37:10.707Z,63.21
2022-11-16T01:42:19.745Z,62.64
2022-11-16T01:47:23.256Z,62.83
2022-11-16T01:52:31.498Z,62.62
2022-11-16T01:57:41.108Z,62.82
2022-11-16T02:02:44.510Z,62.54
2022-11-16T02:08:36.453Z,62.50
2022-11-16T02:13:52.150Z,63.05
2022-11-16T02:19:08.056Z,62.82
2022-11-16T02:24:43.999Z,62.61
2022-11-16T02:29:52.568Z,62.21
2022-11-16T02:34:59.736Z,62.28
2022-11-16T02:40:06.505Z,62.25
2022-11-16T02:45:15.234Z,61.81
2022-11-16T02:50:23.689Z,62.02
2022-11-16T02:55:30.076Z,61.76
2022-11-16T03:00:43.854Z,61.78
2022-11-16T03:05:51.969Z,62.28
2022-11-16T03:11:17.315Z,62.04
2022-11-16T03:16:25.014Z,62.24
2022-11-16T03:21:34.597Z,62.53
2022-11-16T03:26:46.972Z,61.84
2022-11-16T03:31:56.425Z,61.96
2022-11-16T03:37:01.819Z,62.66
2022-11-16T03:42:10.144Z,62.47
2022-11-16T03:47:15.516Z,62.99
2022-11-16T03:52:19.245Z,63.31
2022-11-16T03:57:22.767Z,63.02
2022-11-16T04:02:27.549Z,63.02
2022-11-16T04:07:47.836Z,62.99
2022-11-16T04:13:08.661Z,63.50
2022-11-16T04:18:31.410Z,63.57
2022-11-16T04:23:52.377Z,62.94
2022-11-16T04:28:56.046Z,62.58
2022-11-16T04:34:17.951Z,62.76
2022-11-16T04:39:21.478Z,63.27
2022-11-16T04:44:29.900Z,62.70
2022-11-16T04:49:35.736Z,62.36
2022-11-16T04:54:39.028Z,62.78
2022-11-16T04:59:42.503Z,62.96
2022-11-16T05:04:47.122Z,62.67
2022-11-16T05:09:51.494Z,62.55
2022-11-16T05:14:56.177Z,62.99
2022-11-16T05:20:18.177Z,62.13
2022-11-16T05:25:21.473Z,62.14
2022-11-16T05:30:25.167Z,62.09
2022-11-16T05:35:30.001Z,62.30
2022-11-16T05:40:34.535Z,62.08
2022-11-16T05:45:37.863Z,62.10
2022-11-16T05:50:43.277Z,62.72
2022-11-16T05:55:46.704Z,62.19
2022-11-16T06:00:51.386Z,61.32
2022-11-16T06:05:58.045Z,60.15
2022-11-16T06:11:03.598Z,60.99
2022-11-16T06:16:07.507Z,60.89
2022-11-16T06:21:12.984Z,60.40
2022-11-16T06:26:16.380Z,59.96
2022-11-16T06:31:19.936Z,59.37
2022-11-16T06:36:24.843Z,49.85
2022-11-16T06:41:28.082Z,44.66
2022-11-16T06:46:32.412Z,37.52
2022-11-16T06:51:37.252Z,33.95
2022-11-16T06:56:40.656Z,30.64
2022-11-16T07:01:44.239Z,27.43
2022-11-16T07:06:49.090Z,25.25
2022-11-16T07:11:52.401Z,22.95
2022-11-16T07:16:59.762Z,21.73
2022-11-16T07:22:06.249Z,20.23
2022-11-16T07:27:09.765Z,19.40
2022-11-16T07:32:13.318Z,19.49
2022-11-16T07:37:18.233Z,17.89
2022-11-16T07:42:21.604Z,17.39
2022-11-16T07:47:25.256Z,17.22
2022-11-16T07:52:29.921Z,17.41
2022-11-16T07:57:33.458Z,17.34
2022-11-16T08:02:37.017Z,16.43
2022-11-16T08:07:41.880Z,16.83
2022-11-16T08:12:45.379Z,16.78
2022-11-16T08:17:48.948Z,16.52
2022-11-16T08:22:53.520Z,16.20
2022-11-16T08:27:57.779Z,17.50
2022-11-16T08:33:01.018Z,19.16
2022-11-16T08:38:05.678Z,20.68
2022-11-16T08:43:11.144Z,23.10
2022-11-16T08:48:14.789Z,24.40
2022-11-16T08:53:19.715Z,26.33
2022-11-16T08:58:23.344Z,28.58
2022-11-16T09:03:26.752Z,30.33
2022-11-16T09:08:32.014Z,33.16
2022-11-16T09:13:35.571Z,34.94
2022-11-16T09:18:39.384Z,36.04
2022-11-16T09:23:44.288Z,36.85
2022-11-16T09:28:47.720Z,38.12
2022-11-16T09:33:51.332Z,38.52
2022-11-16T09:39:29.095Z,38.81
2022-11-16T09:44:39.075Z,38.93
2022-11-16T09:49:48.928Z,39.73
2022-11-16T09:54:56.290Z,39.44
2022-11-16T10:00:03.616Z,40.40
2022-11-16T10:05:15.750Z,40.48
2022-11-16T10:10:33.538Z,41.18
2022-11-16T10:15:49.685Z,41.08
2022-11-16T10:21:10.970Z,41.37
2022-11-16T10:26:26.703Z,42.20
2022-11-16T10:31:42.617Z,41.75
2022-11-16T10:36:46.845Z,41.78
2022-11-16T10:41:52.249Z,42.18
2022-11-16T10:47:03.844Z,42.61
2022-11-16T10:52:10.917Z,42.83
2022-11-16T10:57:17.034Z,42.58
2022-11-16T11:02:38.010Z,43.01
2022-11-16T11:07:41.518Z,42.18
2022-11-16T11:13:04.193Z,43.25
2022-11-16T11:18:19.461Z,43.89
2022-11-16T11:23:25.248Z,43.02
2022-11-16T11:28:32.011Z,43.28
2022-11-16T11:33:38.427Z,43.34
2022-11-16T11:38:59.303Z,44.47
2022-11-16T11:44:06.001Z,44.29
2022-11-16T11:49:17.983Z,44.75
2022-11-16T11:54:26.980Z,45.73
2022-11-16T11:59:32.137Z,45.21
2022-11-16T12:05:12.053Z,45.70
2022-11-16T12:10:23.105Z,45.89
2022-11-16T12:15:58.913Z,46.23
2022-11-16T12:21:11.206Z,46.30
2022-11-16T12:26:20.410Z,46.10
2022-11-16T12:31:49.188Z,46.53
2022-11-16T12:37:01.278Z,47.10
2022-11-16T12:42:31.093Z,47.05
2022-11-16T12:47:49.079Z,48.38
2022-11-16T12:53:23.848Z,47.71
2022-11-16T12:58:43.251Z,47.66
2022-11-16T13:03:54.105Z,48.18
2022-11-16T13:09:04.628Z,48.85
2022-11-16T13:14:15.359Z,49.47
2022-11-16T13:19:21.299Z,49.53
2022-11-16T13:24:34.386Z,49.63
2022-11-16T13:29:44.593Z,50.04
2022-11-16T13:34:50.721Z,50.25
2022-11-16T13:40:22.897Z,51.43
2022-11-16T13:45:32.315Z,51.43
2022-11-16T13:50:39.978Z,51.66
2022-11-16T13:55:46.350Z,51.16
2022-11-16T14:00:59.065Z,52.96
2022-11-16T14:06:03.962Z,51.64
2022-11-16T14:11:27.050Z,51.13
2022-11-16T14:16:49.144Z,53.19
2022-11-16T14:22:03.359Z,52.89
2022-11-16T14:27:16.375Z,53.40
2022-11-16T14:32:24.605Z,53.88
2022-11-16T14:37:35.240Z,54.64
2022-11-16T14:43:14.949Z,54.19
2022-11-16T14:48:18.148Z,55.08
2022-11-16T14:53:21.992Z,54.71
2022-11-16T14:58:25.354Z,54.52
2022-11-16T15:03:34.941Z,54.96
2022-11-16T15:08:44.606Z,55.84
2022-11-16T15:13:49.322Z,55.76
2022-11-16T15:19:01.278Z,55.15
2022-11-16T15:29:28.045Z,55.72
2022-11-16T15:34:33.571Z,55.60
2022-11-16T15:39:37.999Z,55.82
2022-11-16T15:44:42.267Z,56.06
2022-11-16T15:49:54.145Z,56.71
2022-11-16T15:55:04.972Z,56.70
2022-11-16T16:00:23.993Z,57.09
2022-11-16T16:05:37.312Z,56.36
2022-11-16T16:10:41.137Z,55.96
2022-11-16T16:15:44.527Z,56.34
2022-11-16T16:20:50.805Z,56.35
2022-11-16T16:25:54.209Z,55.84
2022-11-16T16:30:59.397Z,56.15
2022-11-16T16:36:05.041Z,55.73
2022-11-16T16:41:09.593Z,55.38
2022-11-16T16:46:14.295Z,55.28
2022-11-16T16:51:18.904Z,54.84
2022-11-16T16:56:22.694Z,55.03
2022-11-16T17:01:26.947Z,55.06
2022-11-16T17:06:31.918Z,55.67
2022-11-16T17:11:35.037Z,54.59
2022-11-16T17:16:38.779Z,55.27
2022-11-16T17:21:45.056Z,55.61
2022-11-16T17:26:49.006Z,55.75
2022-11-16T17:31:52.730Z,56.39
2022-11-16T17:36:57.786Z,56.65
2022-11-16T17:42:01.629Z,56.67
2022-11-16T17:47:04.894Z,56.29
2022-11-16T17:52:10.324Z,56.04
2022-11-16T17:57:14.114Z,56.23
2022-11-16T18:02:17.677Z,56.19
2022-11-16T18:07:23.287Z,56.35
2022-11-16T18:12:27.261Z,56.31
2022-11-16T18:17:35.150Z,56.42
2022-11-16T18:22:39.821Z,56.53
2022-11-16T18:27:43.339Z,56.66
2022-11-16T18:32:46.976Z,55.92
2022-11-16T18:37:52.184Z,56.44
2022-11-16T18:42:55.805Z,56.44
2022-11-16T18:47:59.304Z,56.71
2022-11-16T18:53:04.609Z,56.75
2022-11-16T18:58:22.806Z,56.44
2022-11-16T19:03:32.643Z,56.09
2022-11-16T19:08:38.997Z,56.63
2022-11-16T19:13:43.885Z,56.66
2022-11-16T19:18:47.278Z,56.07
2022-11-16T19:23:54.217Z,56.12
2022-11-16T19:28:57.452Z,57.20
2022-11-16T19:34:02.558Z,56.68
2022-11-16T19:39:07.681Z,56.32
2022-11-16T19:44:11.251Z,56.94
2022-11-16T19:49:20.131Z,56.82
2022-11-16T19:54:25.107Z,56.96
2022-11-16T19:59:28.623Z,56.37
2022-11-16T20:04:33.865Z,56.63
2022-11-16T20:09:38.546Z,57.25
2022-11-16T20:14:41.985Z,56.33
2022-11-16T20:19:47.206Z,57.24
2022-11-16T20:24:52.202Z,57.03
2022-11-16T20:29:55.794Z,57.36
2022-11-16T20:34:59.218Z,57.04
2022-11-16T20:40:04.136Z,57.38
2022-11-16T20:45:09.067Z,57.05
2022-11-16T20:50:12.308Z,57.93
2022-11-16T20:55:17.080Z,57.57
2022-11-16T21:00:20.777Z,57.13
2022-11-16T21:05:24.204Z,57.49
2022-11-16T21:10:28.906Z,57.45
2022-11-16T21:15:32.359Z,57.36
2022-11-16T21:20:35.631Z,57.42
2022-11-16T21:25:40.321Z,57.03
2022-11-16T21:30:43.535Z,57.36
2022-11-16T21:35:46.899Z,56.80
2022-11-16T21:40:51.861Z,57.17
2022-11-16T21:46:03.153Z,57.67
2022-11-16T21:51:08.590Z,57.58
2022-11-16T21:56:15.785Z,57.46
2022-11-16T22:01:19.344Z,57.96
2022-11-16T22:06:40.300Z,58.04
2022-11-16T22:11:44.927Z,58.18
2022-11-16T22:16:48.362Z,57.60
2022-11-16T22:21:51.847Z,57.92
2022-11-16T22:26:56.594Z,57.59
2022-11-16T22:32:00.105Z,58.37
2022-11-16T22:37:03.726Z,58.37
2022-11-16T22:42:08.681Z,58.82
2022-11-16T22:47:12.183Z,58.67
2022-11-16T22:52:15.598Z,58.74
2022-11-16T22:57:20.558Z,58.57
2022-11-16T23:02:23.836Z,58.41
2022-11-16T23:07:27.167Z,58.92
2022-11-16T23:12:49.379Z,58.89
2022-11-16T23:17:52.852Z,58.47
2022-11-16T23:23:09.953Z,58.74
2022-11-16T23:28:17.592Z,59.35
2022-11-16T23:33:41.365Z,59.04
2022-11-16T23:38:44.879Z,59.78
2022-11-16T23:44:01.596Z,59.54
2022-11-16T23:49:04.923Z,59.47
2022-11-16T23:54:08.163Z,59.21
2022-11-16T23:59:13.252Z,59.18
